Time;durP1;ratioP1;P1;durP2;ratioP2;P2;SDS_P1;SDS_P2;PMS_P1;PMS_P2;Temp;Humidity;BMP_temperature;BMP_pressure;BME280_temperature;BME280_humidity;BME280_pressure;Samples;Min_cycle;Max_cycle;Signal;HPM_P1;HPM_P2
2022/06/01 00:01:33;;;;;;;10.65;3.95;;;19.80;99.90;;;;;;4995568;28;20027;-75
2022/06/01 00:03:59;;;;;;;12.20;4.25;;;19.80;99.90;;;;;;4994306;28;20105;-76
2022/06/01 00:06:26;;;;;;;8.50;3.67;;;19.90;99.90;;;;;;4994941;28;20117;-76
2022/06/01 00:08:52;;;;;;;8.70;3.45;;;20.10;99.90;;;;;;4994340;28;20489;-76
2022/06/01 00:11:18;;;;;;;8.90;3.60;;;20.00;99.90;;;;;;4993638;28;20097;-75
2022/06/01 00:13:44;;;;;;;7.68;3.25;;;20.00;99.90;;;;;;4994768;28;20034;-76
2022/06/01 00:16:10;;;;;;;10.60;3.50;;;20.00;99.90;;;;;;4994306;28;20030;-75
2022/06/01 00:18:37;;;;;;;9.10;3.42;;;20.00;99.90;;;;;;4994080;28;20499;-75
2022/06/01 00:21:03;;;;;;;8.30;4.10;;;20.00;99.90;;;;;;4994253;28;20487;-75
2022/06/01 00:23:30;;;;;;;8.13;3.67;;;20.00;99.90;;;;;;4994765;28;20026;-76
2022/06/01 00:25:55;;;;;;;10.82;3.70;;;20.00;99.90;;;;;;4994191;28;20062;-75
2022/06/01 00:28:22;;;;;;;7.88;3.58;;;20.00;99.90;;;;;;4994864;28;20491;-75
2022/06/01 00:30:48;;;;;;;10.73;3.67;;;20.00;99.90;;;;;;4993997;28;20022;-75
2022/06/01 00:33:13;;;;;;;9.07;3.45;;;20.00;99.90;;;;;;4996788;28;20030;-75
2022/06/01 00:35:39;;;;;;;7.47;4.25;;;20.00;99.90;;;;;;4995754;28;20029;-76
2022/06/01 00:38:05;;;;;;;12.63;4.55;;;20.00;99.90;;;;;;4995183;28;20061;-75
2022/06/01 00:40:31;;;;;;;11.65;4.40;;;20.00;99.90;;;;;;4994395;28;20053;-75
2022/06/01 00:43:00;;;;;;;9.02;4.20;;;20.00;99.90;;;;;;4996810;28;20065;-75
2022/06/01 00:45:29;;;;;;;8.57;3.85;;;20.10;99.90;;;;;;4996963;28;20104;-75
2022/06/01 00:47:55;;;;;;;14.65;4.40;;;20.00;99.90;;;;;;4994923;28;20411;-74
2022/06/01 00:50:34;;;;;;;7.68;3.50;;;20.10;99.90;;;;;;4995322;28;20104;-75
2022/06/01 00:53:05;;;;;;;8.18;3.97;;;20.20;99.90;;;;;;4993801;28;20117;-75
2022/06/01 00:55:34;;;;;;;8.55;4.07;;;20.30;99.90;;;;;;4994077;28;20030;-75
2022/06/01 00:58:06;;;;;;;7.20;3.85;;;20.30;99.90;;;;;;4995489;28;20035;-75
2022/06/01 01:00:33;;;;;;;12.50;5.10;;;20.30;99.90;;;;;;4994926;28;20030;-75
2022/06/01 01:03:05;;;;;;;9.05;3.78;;;20.20;99.90;;;;;;4994896;28;20022;-75
2022/06/01 01:05:33;;;;;;;10.63;4.55;;;20.10;99.90;;;;;;4995042;28;20084;-75
2022/06/01 01:08:04;;;;;;;9.10;4.55;;;20.10;99.90;;;;;;4995176;28;20029;-75
2022/06/01 01:10:30;;;;;;;12.20;4.88;;;20.00;99.90;;;;;;4993385;28;20027;-75
2022/06/01 01:12:58;;;;;;;16.83;4.93;;;20.00;99.90;;;;;;4995859;28;20054;-75
2022/06/01 01:15:52;;;;;;;10.90;4.93;;;19.70;99.90;;;;;;4994447;28;20503;-75
2022/06/01 01:18:21;;;;;;;12.63;5.00;;;19.60;99.90;;;;;;4990485;28;20462;-75
2022/06/01 01:20:57;;;;;;;10.75;5.13;;;19.70;99.90;;;;;;4996072;28;20023;-75
2022/06/01 01:23:31;;;;;;;12.32;5.03;;;19.80;99.90;;;;;;4996067;28;20395;-76
2022/06/01 01:25:57;;;;;;;11.68;4.85;;;19.70;99.90;;;;;;4994463;28;20076;-75
2022/06/01 01:28:23;;;;;;;16.25;4.80;;;19.80;99.90;;;;;;4993312;28;20050;-75
2022/06/01 01:33:25;;;;;;;12.15;5.35;;;19.80;99.90;;;;;;5242356;22;20046;-75
2022/06/01 01:35:55;;;;;;;14.18;5.47;;;19.80;99.90;;;;;;4995776;28;20058;-75
2022/06/01 01:38:42;;;;;;;10.73;5.00;;;19.80;99.90;;;;;;4993927;28;20496;-75
2022/06/01 01:41:21;;;;;;;9.90;4.60;;;19.70;99.90;;;;;;4994232;28;20037;-75
2022/06/01 01:44:04;;;;;;;12.95;5.60;;;19.70;99.90;;;;;;4997308;28;20034;-76
2022/06/01 01:46:30;;;;;;;11.80;6.17;;;19.70;99.90;;;;;;4993542;28;20045;-75
2022/06/01 01:48:57;;;;;;;9.77;4.97;;;19.70;99.90;;;;;;4994164;28;20038;-75
2022/06/01 01:51:25;;;;;;;13.57;5.55;;;19.60;99.90;;;;;;4995255;28;20046;-76
2022/06/01 01:53:54;;;;;;;10.20;4.35;;;19.70;99.90;;;;;;4993700;28;20070;-75
2022/06/01 01:56:47;;;;;;;10.07;4.68;;;19.70;99.90;;;;;;4994425;28;20061;-75
2022/06/01 01:59:39;;;;;;;8.05;4.32;;;19.70;99.90;;;;;;4987403;28;20101;-76
2022/06/01 02:02:26;;;;;;;8.95;4.55;;;19.70;99.90;;;;;;4993444;28;20034;-76
2022/06/01 02:07:56;;;;;;;11.45;4.65;;;19.60;99.90;;;;;;4989913;28;20061;-75
2022/06/01 02:13:07;;;;;;;11.30;4.07;;;19.50;99.90;;;;;;4993957;28;20045;-76
2022/06/01 02:15:38;;;;;;;11.70;4.90;;;19.50;99.90;;;;;;4994686;28;20125;-76
2022/06/01 02:18:12;;;;;;;11.52;5.20;;;19.50;99.90;;;;;;4993384;28;20069;-76
2022/06/01 02:20:41;;;;;;;;;;;19.50;99.90;;;;;;4994569;28;20026;-75
2022/06/01 02:23:11;;;;;;;8.52;4.78;;;19.40;99.90;;;;;;4994126;28;19956;-75
2022/06/01 02:25:39;;;;;;;14.20;5.07;;;19.40;99.90;;;;;;4992493;28;20037;-75
2022/06/01 02:28:06;;;;;;;9.73;5.13;;;19.30;99.90;;;;;;4993468;28;20034;-75
2022/06/01 02:30:37;;;;;;;9.90;5.28;;;19.20;99.90;;;;;;4993033;28;20042;-75
2022/06/01 02:33:05;;;;;;;10.35;4.97;;;19.00;99.90;;;;;;4993520;28;20456;-75
2022/06/01 02:35:36;;;;;;;16.67;5.70;;;19.00;99.90;;;;;;4993396;28;20030;-75
2022/06/01 02:38:05;;;;;;;12.05;7.32;;;19.00;99.90;;;;;;4992870;28;20080;-75
2022/06/01 02:40:31;;;;;;;14.48;8.30;;;19.00;99.90;;;;;;4993992;28;20027;-76
2022/06/01 02:42:57;;;;;;;15.30;8.38;;;18.90;99.90;;;;;;4993069;28;20514;-75
2022/06/01 02:45:25;;;;;;;14.75;9.55;;;18.90;99.90;;;;;;4993073;28;20033;-76
2022/06/01 02:47:53;;;;;;;14.10;8.90;;;18.70;99.90;;;;;;4992816;28;20106;-76
2022/06/01 02:50:26;;;;;;;12.55;9.38;;;18.50;99.90;;;;;;4993541;28;20027;-75
2022/06/01 02:52:52;;;;;;;21.45;10.20;;;18.50;99.90;;;;;;4992340;28;20110;-75
2022/06/01 02:55:24;;;;;;;14.02;10.65;;;18.50;99.90;;;;;;4994824;28;20034;-75
2022/06/01 02:57:51;;;;;;;13.43;9.43;;;18.40;99.90;;;;;;4992889;28;20026;-75
2022/06/01 03:00:30;;;;;;;14.95;9.07;;;18.40;99.90;;;;;;4995630;28;20073;-75
2022/06/01 03:02:58;;;;;;;14.73;10.32;;;18.40;99.90;;;;;;4993143;28;20081;-75
2022/06/01 03:05:28;;;;;;;13.07;10.88;;;18.40;99.90;;;;;;4992822;28;20026;-75
2022/06/01 03:07:55;;;;;;;17.60;9.52;;;18.30;99.90;;;;;;4992363;28;20391;-75
2022/06/01 03:10:22;;;;;;;16.00;10.07;;;18.20;99.90;;;;;;4994039;28;20049;-75
2022/06/01 03:12:47;;;;;;;15.25;9.20;;;18.30;99.90;;;;;;4992791;28;20066;-75
2022/06/01 03:15:16;;;;;;;13.45;9.48;;;18.20;99.90;;;;;;4992838;28;20058;-76
2022/06/01 03:17:43;;;;;;;13.23;8.60;;;18.20;99.90;;;;;;4994511;28;20526;-75
2022/06/01 03:20:11;;;;;;;12.85;8.75;;;18.30;99.90;;;;;;4992509;28;20942;-76
2022/06/01 03:22:39;;;;;;;15.05;8.23;;;18.40;99.90;;;;;;5004505;28;20061;-75
2022/06/01 03:25:12;;;;;;;15.90;8.48;;;18.50;99.90;;;;;;4993226;28;20084;-75
2022/06/01 03:27:38;;;;;;;15.87;8.77;;;18.50;99.90;;;;;;4994017;28;20037;-75
2022/06/01 03:30:06;;;;;;;12.15;8.40;;;18.50;99.90;;;;;;4996424;28;20030;-75
2022/06/01 03:32:32;;;;;;;11.80;10.05;;;18.60;99.90;;;;;;4997670;28;20054;-75
2022/06/01 03:34:57;;;;;;;15.52;8.73;;;18.50;99.90;;;;;;4996646;28;20022;-75
2022/06/01 03:37:23;;;;;;;10.75;7.85;;;18.50;99.90;;;;;;4995666;28;20046;-75
2022/06/01 03:39:49;;;;;;;10.25;7.00;;;18.60;99.90;;;;;;4996508;28;20037;-75
2022/06/01 03:42:15;;;;;;;15.52;8.35;;;18.50;99.90;;;;;;4996317;28;20561;-75
2022/06/01 03:47:24;;;;;;;13.80;8.82;;;18.30;99.90;;;;;;4983304;28;20053;-75
2022/06/01 03:49:50;;;;;;;14.18;7.75;;;18.30;99.90;;;;;;5003529;28;20055;-75
2022/06/01 03:52:16;;;;;;;16.33;8.02;;;18.30;99.90;;;;;;4995903;28;20049;-75
2022/06/01 03:54:41;;;;;;;13.48;7.90;;;18.30;99.90;;;;;;4996169;28;20030;-75
2022/06/01 03:57:08;;;;;;;16.13;7.90;;;18.40;99.90;;;;;;4997564;28;20029;-75
2022/06/01 03:59:34;;;;;;;14.05;8.10;;;18.40;99.90;;;;;;4996702;28;20164;-75
2022/06/01 04:02:01;;;;;;;13.45;7.80;;;18.30;99.90;;;;;;4996352;28;20090;-75
2022/06/01 04:04:27;;;;;;;14.05;7.60;;;18.30;99.90;;;;;;4994776;28;20037;-75
2022/06/01 04:06:53;;;;;;;16.83;7.53;;;18.20;99.90;;;;;;4996150;28;20081;-75
2022/06/01 04:09:18;;;;;;;15.18;8.32;;;18.20;99.90;;;;;;4995786;28;20451;-76
2022/06/01 04:11:44;;;;;;;15.70;7.63;;;18.20;99.90;;;;;;4997533;28;20397;-75
2022/06/01 04:14:10;;;;;;;13.98;7.53;;;18.20;99.90;;;;;;4980448;28;20033;-75
2022/06/01 04:16:36;;;;;;;18.33;8.32;;;18.20;99.90;;;;;;4995603;28;20041;-75
2022/06/01 04:19:01;;;;;;;15.05;6.95;;;18.30;99.90;;;;;;4995412;28;20045;-75
2022/06/01 04:21:30;;;;;;;16.75;7.70;;;18.30;99.90;;;;;;4996723;28;20589;-75
2022/06/01 04:24:01;;;;;;;17.23;7.18;;;18.40;99.90;;;;;;4995757;28;20034;-75
2022/06/01 04:26:27;;;;;;;15.50;6.55;;;18.50;99.90;;;;;;4997135;28;20376;-75
2022/06/01 04:28:53;;;;;;;16.88;6.20;;;18.50;99.90;;;;;;4995169;28;20034;-75
2022/06/01 04:31:19;;;;;;;17.98;7.28;;;18.40;99.90;;;;;;4993677;28;20466;-74
2022/06/01 04:33:45;;;;;;;11.30;6.18;;;18.50;99.90;;;;;;4995181;28;20522;-74
2022/06/01 04:36:11;;;;;;;12.20;6.30;;;18.60;99.90;;;;;;4997125;28;20023;-75
2022/06/01 04:38:37;;;;;;;13.35;7.10;;;18.60;99.90;;;;;;4995550;28;20026;-75
2022/06/01 04:41:03;;;;;;;14.95;7.55;;;18.50;99.90;;;;;;4995468;28;20582;-75
2022/06/01 04:43:29;;;;;;;11.40;6.90;;;18.50;99.90;;;;;;4994478;28;20446;-75
2022/06/01 04:45:56;;;;;;;15.45;6.25;;;18.60;99.90;;;;;;4995162;28;20030;-75
2022/06/01 04:48:23;;;;;;;10.85;6.38;;;18.70;99.90;;;;;;4996145;28;20085;-74
2022/06/01 04:50:49;;;;;;;8.55;6.63;;;18.70;99.90;;;;;;4995425;28;20451;-75
2022/06/01 04:53:17;;;;;;;11.98;7.15;;;18.80;99.90;;;;;;4995013;28;20061;-75
2022/06/01 04:55:45;;;;;;;12.52;7.30;;;18.80;99.90;;;;;;4997544;28;20022;-76
2022/06/01 04:58:11;;;;;;;13.70;7.25;;;18.90;99.90;;;;;;4994756;28;20034;-75
2022/06/01 05:00:39;;;;;;;15.48;7.03;;;18.90;99.90;;;;;;4995270;28;20026;-75
2022/06/01 05:03:06;;;;;;;13.07;6.97;;;18.90;99.90;;;;;;4994606;28;20034;-76
2022/06/01 05:05:35;;;;;;;13.65;6.97;;;19.00;99.90;;;;;;4995172;28;20190;-78
2022/06/01 05:08:00;;;;;;;13.88;7.47;;;19.00;99.90;;;;;;4994336;28;20592;-75
2022/06/01 05:10:28;;;;;;;13.35;7.20;;;19.00;99.90;;;;;;5006768;28;20026;-76
2022/06/01 05:12:54;;;;;;;18.25;7.35;;;19.10;99.90;;;;;;4994991;28;20054;-75
2022/06/01 05:15:20;;;;;;;14.40;7.05;;;19.20;99.90;;;;;;4998642;28;20018;-75
2022/06/01 05:17:46;;;;;;;16.90;7.88;;;19.20;99.90;;;;;;4995546;28;20037;-76
2022/06/01 05:20:16;;;;;;;21.20;8.98;;;19.20;99.90;;;;;;5003679;28;20034;-75
2022/06/01 05:22:42;;;;;;;15.27;8.18;;;19.20;99.90;;;;;;5020216;23;20050;-68
2022/06/01 05:25:09;;;;;;;17.38;8.00;;;19.30;99.90;;;;;;5014034;28;20117;-69
2022/06/01 05:27:35;;;;;;;16.70;7.32;;;19.30;99.90;;;;;;5014677;28;20405;-69
2022/06/01 05:30:02;;;;;;;18.23;7.40;;;19.30;99.90;;;;;;5015889;28;20037;-68
2022/06/01 05:32:28;;;;;;;19.38;7.47;;;19.30;99.90;;;;;;5014510;28;20497;-69
2022/06/01 05:34:54;;;;;;;17.13;7.20;;;19.40;99.90;;;;;;5025020;28;20044;-69
2022/06/01 05:37:19;;;;;;;22.33;8.52;;;19.40;99.90;;;;;;5012293;28;20470;-70
2022/06/01 05:39:45;;;;;;;19.98;8.35;;;19.40;99.90;;;;;;5011439;28;20065;-70
2022/06/01 05:42:11;;;;;;;26.67;8.57;;;19.50;99.90;;;;;;5008811;28;20367;-69
2022/06/01 05:44:37;;;;;;;23.00;8.52;;;19.50;99.90;;;;;;5015322;28;20037;-70
2022/06/01 05:47:04;;;;;;;18.20;8.10;;;19.50;99.90;;;;;;5015054;28;20064;-70
2022/06/01 05:49:30;;;;;;;23.58;9.25;;;19.50;99.90;;;;;;5013795;28;20030;-69
2022/06/01 05:51:57;;;;;;;23.35;9.85;;;19.50;99.90;;;;;;5013342;28;20099;-70
2022/06/01 05:54:22;;;;;;;29.65;13.27;;;19.50;99.90;;;;;;5011007;28;20136;-70
2022/06/01 05:56:48;;;;;;;29.45;12.85;;;19.50;99.90;;;;;;5012872;28;20117;-69
2022/06/01 05:59:15;;;;;;;23.45;12.52;;;19.60;99.90;;;;;;5014423;28;20022;-70
2022/06/01 06:01:41;;;;;;;27.92;13.18;;;19.70;99.90;;;;;;5012284;28;20088;-70
2022/06/01 06:04:08;;;;;;;27.08;13.43;;;19.60;99.90;;;;;;5013444;28;20180;-69
2022/06/01 06:06:34;;;;;;;30.55;13.07;;;19.60;99.90;;;;;;5012604;28;20041;-70
2022/06/01 06:09:05;;;;;;;27.63;13.52;;;19.60;99.90;;;;;;5015177;28;20038;-70
2022/06/01 06:11:35;;;;;;;22.15;12.98;;;19.70;99.90;;;;;;5013910;28;20560;-70
2022/06/01 06:14:01;;;;;;;25.00;15.80;;;19.70;99.90;;;;;;5014314;28;20030;-70
2022/06/01 06:16:31;;;;;;;36.30;16.13;;;19.70;99.90;;;;;;5013366;28;20537;-70
2022/06/01 06:18:57;;;;;;;23.65;15.68;;;19.70;99.90;;;;;;5015197;28;20095;-70
2022/06/01 06:21:24;;;;;;;28.60;15.73;;;19.90;99.90;;;;;;5013628;28;20042;-70
2022/06/01 06:23:50;;;;;;;29.30;15.07;;;19.90;99.90;;;;;;5013023;28;20802;-70
2022/06/01 06:26:16;;;;;;;24.92;13.93;;;20.00;99.90;;;;;;5014213;28;20099;-70
2022/06/01 06:28:44;;;;;;;24.40;15.43;;;20.00;99.90;;;;;;5012348;28;20030;-70
2022/06/01 06:31:10;;;;;;;27.42;15.77;;;20.10;99.90;;;;;;5015492;28;20117;-70
2022/06/01 06:33:36;;;;;;;23.23;15.20;;;20.00;99.90;;;;;;5008565;28;20087;-71
2022/06/01 06:36:05;;;;;;;26.63;15.52;;;20.10;99.90;;;;;;5011262;28;20034;-70
2022/06/01 06:38:33;;;;;;;24.42;15.65;;;20.20;99.90;;;;;;5010644;28;20077;-71
2022/06/01 06:40:59;;;;;;;25.85;14.55;;;20.30;99.90;;;;;;5010018;28;20502;-71
2022/06/01 06:43:27;;;;;;;19.98;13.27;;;20.20;99.90;;;;;;5009013;28;20030;-71
2022/06/01 06:45:59;;;;;;;21.77;13.10;;;20.20;99.90;;;;;;5010609;28;20045;-72
2022/06/01 06:48:25;;;;;;;19.10;13.35;;;20.30;99.90;;;;;;5010660;28;20133;-71
2022/06/01 06:50:51;;;;;;;24.95;12.50;;;20.30;99.90;;;;;;5009426;28;20105;-71
2022/06/01 06:53:17;;;;;;;22.23;11.35;;;20.50;99.90;;;;;;5005787;28;20037;-71
2022/06/01 06:55:43;;;;;;;19.65;10.95;;;20.60;99.90;;;;;;5004100;28;20100;-71
2022/06/01 06:58:10;;;;;;;23.73;12.20;;;20.50;99.90;;;;;;5004693;28;20494;-70
2022/06/01 07:00:37;;;;;;;18.15;10.73;;;20.60;99.90;;;;;;5004949;28;20048;-71
2022/06/01 07:03:03;;;;;;;26.77;10.45;;;20.70;99.90;;;;;;5011893;28;20101;-70
2022/06/01 07:08:13;;;;;;;;;;;20.80;99.90;;;;;;4999389;28;20057;-70
2022/06/01 07:10:39;;;;;;;21.98;10.48;;;20.90;99.90;;;;;;5009832;28;19910;-71
2022/06/01 07:13:04;;;;;;;21.30;10.43;;;20.80;99.90;;;;;;5009399;28;20030;-71
2022/06/01 07:15:30;;;;;;;20.10;10.93;;;20.80;99.90;;;;;;5012320;28;20038;-70
2022/06/01 07:17:56;;;;;;;19.33;9.55;;;20.90;99.90;;;;;;5012966;28;20114;-71
2022/06/01 07:20:22;;;;;;;16.55;9.00;;;21.00;99.90;;;;;;5013259;28;20038;-70
2022/06/01 07:22:48;;;;;;;15.23;7.72;;;21.00;99.90;;;;;;5007929;28;20037;-70
2022/06/01 07:25:14;;;;;;;14.85;7.05;;;21.10;99.90;;;;;;5012991;28;20100;-71
2022/06/01 07:27:40;;;;;;;17.25;8.07;;;21.20;99.90;;;;;;5013254;28;20033;-71
2022/06/01 07:30:09;;;;;;;13.23;6.38;;;21.20;99.90;;;;;;5012602;28;20432;-70
2022/06/01 07:32:34;;;;;;;13.00;6.03;;;21.20;99.90;;;;;;5008763;28;20197;-70
2022/06/01 07:35:03;;;;;;;11.88;5.65;;;21.30;99.90;;;;;;5009619;28;20156;-70
2022/06/01 07:43:06;;;;;;;11.07;5.13;;;21.50;99.90;;;;;;5018213;28;20045;-72
2022/06/01 07:45:38;;;;;;;15.23;5.55;;;21.60;99.90;;;;;;5016707;28;20072;-71
2022/06/01 07:48:05;;;;;;;9.88;4.55;;;21.70;99.90;;;;;;5008416;28;20038;-72
2022/06/01 07:50:33;;;;;;;9.65;4.20;;;21.70;99.90;;;;;;5016336;28;20028;-72
2022/06/01 07:53:00;;;;;;;11.27;4.22;;;21.70;99.90;;;;;;5016061;28;20045;-73
2022/06/01 07:55:26;;;;;;;10.02;4.82;;;21.70;99.90;;;;;;5015076;28;20437;-74
2022/06/01 07:57:51;;;;;;;9.68;4.88;;;21.70;99.90;;;;;;5016633;28;20034;-71
2022/06/01 08:00:18;;;;;;;13.27;6.53;;;21.70;99.90;;;;;;5016468;28;20053;-71
2022/06/01 08:02:45;;;;;;;14.10;5.28;;;21.80;99.90;;;;;;5007778;28;20026;-72
2022/06/01 08:05:13;;;;;;;14.73;6.55;;;21.80;99.90;;;;;;5017484;28;20451;-71
2022/06/01 08:07:39;;;;;;;16.75;5.78;;;21.90;99.90;;;;;;5016052;28;20044;-71
2022/06/01 08:10:06;;;;;;;15.25;4.70;;;21.90;99.90;;;;;;5016172;28;20068;-71
2022/06/01 08:15:17;;;;;;;12.43;4.50;;;22.20;99.90;;;;;;5016299;28;20155;-71
2022/06/01 08:17:44;;;;;;;11.65;4.60;;;22.20;99.90;;;;;;5016434;28;20045;-71
2022/06/01 08:20:13;;;;;;;6.95;3.10;;;22.20;99.90;;;;;;5015146;28;20040;-71
2022/06/01 08:22:40;;;;;;;7.00;2.70;;;22.30;99.90;;;;;;5015393;28;20061;-72
2022/06/01 08:25:08;;;;;;;11.13;3.08;;;22.30;99.90;;;;;;5015959;28;20037;-71
2022/06/01 08:27:33;;;;;;;8.02;3.25;;;22.40;99.90;;;;;;5015715;28;20469;-72
2022/06/01 08:29:59;;;;;;;8.77;3.00;;;22.60;99.90;;;;;;5015709;28;20026;-72
2022/06/01 08:32:25;;;;;;;9.48;3.45;;;22.70;99.90;;;;;;5017745;28;20041;-72
2022/06/01 08:34:51;;;;;;;7.90;3.20;;;22.70;99.90;;;;;;5014761;28;20034;-72
2022/06/01 08:37:17;;;;;;;9.68;3.22;;;22.90;99.90;;;;;;5016264;28;20490;-72
2022/06/01 08:39:44;;;;;;;9.55;3.10;;;22.80;99.90;;;;;;5014701;28;20061;-72
2022/06/01 08:42:16;;;;;;;11.18;2.92;;;22.80;99.90;;;;;;5016005;28;20026;-72
2022/06/01 08:44:46;;;;;;;9.48;3.00;;;22.70;99.90;;;;;;5005631;28;20025;-72
2022/06/01 08:47:28;;;;;;;6.45;3.15;;;23.00;99.90;;;;;;5016086;28;20120;-71
2022/06/01 08:50:00;;;;;;;8.27;3.20;;;23.00;99.90;;;;;;5012904;28;20038;-71
2022/06/01 08:52:30;;;;;;;8.63;3.28;;;23.00;98.90;;;;;;5012907;28;20112;-71
2022/06/01 08:54:56;;;;;;;10.05;2.80;;;23.10;99.70;;;;;;5015269;28;20072;-72
2022/06/01 08:57:29;;;;;;;8.80;2.63;;;23.20;99.10;;;;;;5015066;28;20033;-72
2022/06/01 09:00:24;;;;;;;9.30;3.03;;;23.30;97.90;;;;;;5016926;28;20034;-71
2022/06/01 09:03:13;;;;;;;6.57;2.55;;;23.40;96.10;;;;;;5003959;28;20417;-72
2022/06/01 09:05:54;;;;;;;13.88;2.97;;;23.20;96.50;;;;;;5015213;28;20068;-71
2022/06/01 09:08:40;;;;;;;12.15;2.75;;;23.30;96.00;;;;;;5013640;28;20115;-71
2022/06/01 09:11:09;;;;;;;7.47;2.75;;;23.40;94.90;;;;;;5015080;28;20034;-71
2022/06/01 09:13:43;;;;;;;11.15;2.47;;;23.40;93.00;;;;;;5015791;28;20048;-72
2022/06/01 09:16:20;;;;;;;6.10;2.15;;;23.60;92.40;;;;;;5015227;28;20030;-72
2022/06/01 09:18:53;;;;;;;6.75;2.03;;;23.60;91.00;;;;;;5015211;28;20053;-72
2022/06/01 09:24:16;;;;;;;9.68;2.40;;;23.80;92.70;;;;;;5008670;28;20662;-74
2022/06/01 09:27:07;;;;;;;8.85;2.20;;;24.00;91.40;;;;;;5015153;28;20018;-73
2022/06/01 09:29:45;;;;;;;7.95;2.85;;;23.80;91.10;;;;;;5009620;28;20034;-72
2022/06/01 09:32:33;;;;;;;7.18;2.55;;;23.80;93.20;;;;;;5014695;28;20038;-72
2022/06/01 09:35:06;;;;;;;10.38;2.60;;;23.80;92.30;;;;;;5012693;28;20037;-72
2022/06/01 09:37:40;;;;;;;7.13;2.35;;;23.80;90.60;;;;;;5012394;28;20582;-72
2022/06/01 09:40:28;;;;;;;6.35;2.60;;;24.00;90.00;;;;;;5016058;28;20036;-72
2022/06/01 09:42:55;;;;;;;5.40;1.95;;;24.10;86.90;;;;;;5012314;28;20068;-70
2022/06/01 09:45:39;;;;;;;7.47;2.88;;;24.20;85.50;;;;;;5014189;28;20046;-70
2022/06/01 09:48:17;;;;;;;7.40;2.17;;;24.30;88.10;;;;;;5016070;28;20033;-68
2022/06/01 09:50:45;;;;;;;4.57;1.90;;;24.30;84.80;;;;;;5010889;28;20379;-68
2022/06/01 09:53:11;;;;;;;8.27;2.50;;;24.40;84.30;;;;;;5014527;28;20048;-68
2022/06/01 09:55:56;;;;;;;7.00;1.90;;;24.50;81.60;;;;;;5013514;28;20390;-68
2022/06/01 10:07:00;;;;;;;9.30;2.05;;;24.60;74.20;;;;;;5014260;28;20069;-69
2022/06/01 10:09:29;;;;;;;6.18;2.15;;;24.70;74.20;;;;;;5014701;28;20037;-70
2022/06/01 10:11:57;;;;;;;6.90;1.67;;;24.60;73.20;;;;;;5013301;28;20080;-69
2022/06/01 10:14:31;;;;;;;5.43;1.60;;;24.80;70.70;;;;;;5013599;28;20052;-70
2022/06/01 10:17:38;;;;;;;5.47;1.70;;;25.00;69.30;;;;;;5013876;28;20509;-69
2022/06/01 10:20:21;;;;;;;8.38;1.95;;;25.10;69.90;;;;;;5010701;28;20053;-69
2022/06/01 10:23:22;;;;;;;6.13;2.00;;;25.00;70.80;;;;;;4972926;28;20383;-68
2022/06/01 10:25:57;;;;;;;8.18;1.77;;;25.10;71.00;;;;;;4962991;28;20118;-68
2022/06/01 10:28:40;;;;;;;7.18;2.15;;;25.10;70.80;;;;;;4970762;28;20181;-68
2022/06/01 10:31:17;;;;;;;8.38;2.28;;;25.10;69.50;;;;;;4962163;28;20042;-69
2022/06/01 10:33:51;;;;;;;6.20;1.77;;;25.50;68.60;;;;;;4969301;28;20126;-69
2022/06/01 10:36:44;;;;;;;8.27;2.40;;;25.20;69.20;;;;;;4971820;28;20642;-68
2022/06/01 10:39:23;;;;;;;7.32;1.95;;;25.60;69.00;;;;;;4964491;28;20655;-68
2022/06/01 10:42:17;;;;;;;6.65;1.77;;;25.40;68.10;;;;;;4961047;28;20178;-68
2022/06/01 10:44:50;;;;;;;5.63;1.65;;;25.40;67.90;;;;;;4962062;28;20041;-69
2022/06/01 10:47:36;;;;;;;6.25;2.22;;;25.60;66.70;;;;;;4974148;28;20038;-68
2022/06/01 10:50:12;;;;;;;6.50;1.88;;;25.60;65.50;;;;;;4971628;28;20039;-68
2022/06/01 10:52:48;;;;;;;10.40;1.90;;;25.70;63.80;;;;;;4957644;28;20392;-69
2022/06/01 10:55:34;;;;;;;8.63;1.80;;;25.70;66.20;;;;;;4971841;28;20054;-68
2022/06/01 10:58:01;;;;;;;11.98;2.63;;;25.70;65.70;;;;;;4963243;28;20122;-68
2022/06/01 11:00:33;;;;;;;11.57;1.95;;;25.70;66.50;;;;;;4965648;28;20027;-70
2022/06/01 11:03:25;;;;;;;8.95;1.83;;;25.50;69.90;;;;;;4983753;28;20026;-74
2022/06/01 11:06:16;;;;;;;5.57;1.80;;;25.80;69.40;;;;;;4969640;28;20565;-74
2022/06/01 11:09:22;;;;;;;6.22;2.00;;;26.10;69.10;;;;;;4968914;28;20139;-74
2022/06/01 11:11:59;;;;;;;8.48;2.08;;;26.00;68.80;;;;;;5229525;23;20045;-79
2022/06/01 11:14:27;;;;;;;9.25;2.00;;;26.10;67.50;;;;;;4997202;28;20045;-79
2022/06/01 11:17:08;;;;;;;9.43;2.25;;;26.20;68.50;;;;;;5011670;28;20029;-79
2022/06/01 11:19:56;;;;;;;8.13;1.98;;;26.00;68.50;;;;;;5010378;28;20034;-79
2022/06/01 11:22:47;;;;;;;6.00;1.90;;;26.10;68.50;;;;;;5011156;28;20030;-78
2022/06/01 11:25:28;;;;;;;6.72;2.17;;;26.00;68.40;;;;;;5013662;28;20112;-78
2022/06/01 11:28:12;;;;;;;11.02;2.13;;;26.00;67.70;;;;;;5012130;28;20525;-79
2022/06/01 11:30:47;;;;;;;;;;;26.00;68.90;;;;;;5012847;28;20044;-79
2022/06/01 11:33:31;;;;;;;8.57;1.92;;;26.20;67.20;;;;;;5011939;28;19925;-78
2022/06/01 11:36:23;;;;;;;8.85;1.63;;;26.20;67.20;;;;;;5013688;28;20092;-79
2022/06/01 11:39:17;;;;;;;6.60;1.80;;;26.40;66.90;;;;;;5012489;28;20072;-79
2022/06/01 11:42:00;;;;;;;8.27;2.10;;;26.40;65.80;;;;;;5011490;28;20042;-79
2022/06/01 11:44:35;;;;;;;10.73;2.30;;;26.30;66.10;;;;;;4998195;28;20029;-79
2022/06/01 11:47:22;;;;;;;9.55;2.00;;;26.40;66.70;;;;;;5011638;28;20401;-79
2022/06/01 11:50:24;;;;;;;6.53;1.98;;;26.50;67.60;;;;;;5010067;28;20033;-79
2022/06/01 11:52:56;;;;;;;8.82;2.10;;;26.60;67.60;;;;;;4993181;28;20062;-79
2022/06/01 11:55:50;;;;;;;5.35;1.90;;;26.60;67.40;;;;;;4995460;28;20050;-79
2022/06/01 11:58:18;;;;;;;10.32;2.78;;;26.80;66.70;;;;;;4992144;28;20038;-79
2022/06/01 12:00:51;;;;;;;8.10;1.98;;;26.80;66.40;;;;;;4993728;28;20109;-79
2022/06/01 12:03:20;;;;;;;6.33;2.13;;;26.60;67.00;;;;;;4993488;28;20039;-79
2022/06/01 12:06:06;;;;;;;7.30;1.98;;;26.80;66.90;;;;;;4993762;28;20575;-79
2022/06/01 12:08:41;;;;;;;4.90;1.83;;;27.20;67.70;;;;;;4916536;29;20043;-79
2022/06/01 12:11:29;;;;;;;9.65;2.30;;;26.90;69.10;;;;;;4917116;29;20051;-79
2022/06/01 12:13:55;;;;;;;5.85;1.90;;;26.80;68.90;;;;;;4915761;29;20399;-78
2022/06/01 12:16:25;;;;;;;7.22;2.00;;;26.60;69.40;;;;;;4916384;29;20059;-78
2022/06/01 12:19:11;;;;;;;7.63;1.80;;;26.70;69.70;;;;;;4916573;29;20099;-78
2022/06/01 12:21:43;;;;;;;8.60;1.90;;;27.00;69.20;;;;;;4916301;29;20036;-78
2022/06/01 12:30:05;;;;;;;9.43;2.22;;;27.00;68.70;;;;;;4950675;28;20126;-78
2022/06/01 12:32:58;;;;;;;8.18;2.13;;;27.10;69.10;;;;;;4952515;28;20501;-78
2022/06/01 12:35:26;;;;;;;7.95;1.92;;;27.30;66.60;;;;;;4953651;28;20167;-78
2022/06/01 12:38:06;;;;;;;12.60;2.30;;;27.30;65.50;;;;;;4950562;28;20023;-78
2022/06/01 12:40:33;;;;;;;10.27;2.28;;;27.10;66.70;;;;;;4952493;28;20433;-78
2022/06/01 12:43:02;;;;;;;8.27;2.05;;;27.40;64.90;;;;;;4949858;28;20528;-79
2022/06/01 12:45:40;;;;;;;9.65;2.35;;;27.30;66.00;;;;;;4975907;28;20111;-79
2022/06/01 12:48:23;;;;;;;7.18;2.00;;;27.20;65.60;;;;;;5014524;28;20029;-78
2022/06/01 12:50:52;;;;;;;9.88;2.03;;;27.10;66.90;;;;;;5014895;28;20491;-79
2022/06/01 12:53:19;;;;;;;10.02;2.10;;;27.70;66.60;;;;;;5015586;28;20046;-78
2022/06/01 12:55:46;;;;;;;11.00;2.10;;;27.70;65.60;;;;;;5014291;28;20049;-79
2022/06/01 12:58:22;;;;;;;9.52;2.10;;;27.60;64.70;;;;;;5016501;28;20032;-79
2022/06/01 13:00:55;;;;;;;15.27;2.15;;;27.30;65.60;;;;;;5013368;28;20022;-78
2022/06/01 13:03:23;;;;;;;6.53;1.95;;;27.30;65.10;;;;;;5015662;28;20049;-79
2022/06/01 13:05:52;;;;;;;10.15;2.33;;;27.20;65.30;;;;;;5015935;28;20038;-78
2022/06/01 13:08:37;;;;;;;7.00;1.85;;;27.20;65.70;;;;;;5007243;28;20049;-78
2022/06/01 13:11:24;;;;;;;8.73;2.00;;;27.20;64.10;;;;;;5013976;28;20045;-78
2022/06/01 13:13:51;;;;;;;7.25;1.83;;;27.10;63.30;;;;;;5010150;28;20075;-79
2022/06/01 13:16:20;;;;;;;7.50;2.13;;;27.30;62.50;;;;;;5014039;28;20042;-79
2022/06/01 13:18:46;;;;;;;6.63;1.98;;;27.30;63.20;;;;;;5015253;28;20033;-79
2022/06/01 13:21:33;;;;;;;8.55;2.00;;;27.20;61.90;;;;;;5014465;28;20433;-79
2022/06/01 13:24:01;;;;;;;6.25;2.17;;;;;;;;;;5014500;28;20021;-79
2022/06/01 13:26:48;;;;;;;6.65;1.90;;;;;;;;;;5013845;28;20491;-79
2022/06/01 13:29:20;;;;;;;9.00;1.90;;;;;;;;;;5013528;28;20029;-78
2022/06/01 13:31:53;;;;;;;5.88;2.13;;;;;;;;;;5009025;28;20038;-79
2022/06/01 13:34:39;;;;;;;8.00;2.25;;;;;;;;;;5008548;28;20037;-78
2022/06/01 13:37:20;;;;;;;10.15;2.47;;;;;;;;;;5012483;28;20100;-79
2022/06/01 13:40:07;;;;;;;10.48;2.00;;;;;;;;;;5010544;28;20454;-78
2022/06/01 13:42:37;;;;;;;9.63;2.35;;;;;;;;;;5015089;28;20029;-79
2022/06/01 13:45:03;;;;;;;13.15;2.75;;;;;;;;;;5014742;28;20026;-79